Terminal Aerodrome Forecast
Issued by NWS

Home | Current Version | Previous Version | Text Only | Print | Product List | Glossary On
Versions: 1 2 3 4 5 6 7 8 9 10 11 12 13 14 15 16 17 18 19 20
017
FTUS41 KBTV 201734
TAFSLK
TAF
KSLK 201734Z 2018/2118 VRB03KT P6SM OVC006
      TEMPO 2018/2022 SCT006
     FM210300 00000KT 4SM BR OVC005
     FM210600 00000KT 3/4SM BR OVC003
     FM211400 23004KT 4SM BR OVC008=

USA.gov is the U.S. government's official web portal to all federal, state and local government web resources and services.